Accueil
METAR-TAF:

METAR-TAF

Aéroports :

Rheine, Allemagne

latitude: 52-18N, longitude: 007-23E, altitude: 40 m

Observation

Le bulletin a été fait il y a 51 minutes, à 07:20 UTC
Vent 8 kt de ouest/sud-ouest
Température 10°C
Humidité 87%
Pression 1015 hPa
Visibilité 10 km ou plus
Nuages épars à une hauteur de 1600 ft
Nuages fragmentés à une hauteur de 3500 ft

METAR: ETHE 230720Z 24008KT 9999 SCT016 BKN035 10/08 Q1015 BLU

Heure: 10:11 (08:11 UTC)

Prévision

Le bulletin a été fait il y a 51 minutes, à 07:20 UTC
Prévision valable du 23 à 08 UTC au 23 à 17 UTC
Vent 10 kt de ouest/sud-ouest avec des rafales jusqu'à 20 kt
Visibilité 10 km ou plus
Nuages épars à une hauteur de 1500 ft
Nuages fragmentés à une hauteur de 5000 ft

TAF: ETHE 230720Z 2308/2317 24010G20KT 9999 NSW SCT015 BKN050

Observations et prévisions météorologiques de plus de 4000 aéroports (messages METAR et TAF).

Les stations disponibles sont représentées par des disques jaunes et rouges sur la carte.

Passer la souris dessus pour voir le nom de la station.

Cliquer dessus pour voir les observations et prévisions météorologiques.

Pour changer de carte: cliquez sur les boutons verts avec une croix noire pour zoomer, sur le bouton vert avec un tiret pour effectuer un zoom arrière, ou sur les flèches vertes pour les cartes adjacentes.


METAR-TAF: